Latest Weather Observations for Wudinna Airport

IDS60801

Issued at 7:04 pm CDT Friday 19 December 2014 (issued every 30 minutes, with the page automatically refreshed every 10 minutes)

About weather observations | Map of weather stations | Latest weather observations for SA | Other Formats
Station Details ID: 018083 Name: WUDINNA AERO Lat: -33.04 Lon: 135.45 Height: 86.4 m
Data from the previous 72 hours. | See also: Recent months at Wudinna Airport
Date/Time
CDT
Temp
°C
App
Temp
°C
Dew
Point
Rel
Hum
%
Delta-T
°C
Wind Press
QNH
hPa
Press
MSL
hPa
Rain
since 9 am
mm
Dir
 
Spd
km/h
Gust
km/h
Spd
kts
Gust
kts
19/07:00pm 26.8 20.2 6.2 27 10.8 S 30 39 16 21 1017.8 - 0.0
19/06:30pm 27.4 20.7 5.6 25 11.3 S 30 37 16 20 1017.7 - 0.0
19/06:00pm 28.6 22.9 4.8 22 12.3 S 24 39 13 21 1017.4 1017.2 0.0
19/05:30pm 28.1 24.4 2.3 19 12.7 SSE 11 22 6 12 1017.6 - 0.0
19/05:00pm 28.7 24.2 2.1 18 13.1 S 15 20 8 11 1017.8 - 0.0
19/04:30pm 28.2 23.4 2.4 19 12.7 S 17 24 9 13 1018.2 - 0.0
19/04:00pm 27.8 22.5 2.8 20 12.4 ESE 20 33 11 18 1018.4 - 0.0
19/03:30pm 27.4 23.0 2.5 20 12.2 SE 15 24 8 13 1018.8 - 0.0
19/03:00pm 26.5 22.4 2.4 21 11.7 SSE 13 26 7 14 1019.1 1018.9 0.0
19/02:30pm 26.9 22.2 3.4 22 11.7 S 17 30 9 16 1019.4 - 0.0
19/02:00pm 25.6 21.6 2.9 23 11.1 SE 13 22 7 12 1019.9 - 0.0
19/01:30pm 24.8 20.9 3.5 25 10.4 SE 13 26 7 14 1020.3 - 0.0
19/01:00pm 24.1 20.1 2.9 25 10.2 ESE 13 26 7 14 1020.6 - 0.0
19/12:30pm 23.2 18.5 3.2 27 9.6 SSE 17 28 9 15 1020.8 - 0.0
19/12:00pm 22.1 17.4 3.3 29 9.0 SE 17 26 9 14 1020.9 1020.6 0.0
19/11:30am 22.1 18.0 4.6 32 8.6 SE 15 22 8 12 1021.0 - 0.0
19/11:00am 20.7 17.0 4.3 34 7.9 SE 13 20 7 11 1021.2 - 0.0
19/10:30am 20.1 16.2 5.4 38 7.2 SSE 15 22 8 12 1021.3 - 0.0
19/10:00am 18.9 15.8 5.4 41 6.6 SE 11 19 6 10 1021.5 - 0.0
19/09:30am 18.1 14.4 6.3 46 5.8 SSE 15 24 8 13 1021.4 - 0.0
19/09:00am 16.6 13.1 7.0 53 4.8 SSE 15 22 8 12 1021.4 1021.1 0.0
19/08:30am 15.5 12.5 7.5 59 4.0 SSE 13 17 7 9 1021.3 - 0.0
19/08:00am 14.2 11.9 7.5 64 3.3 SSE 9 13 5 7 1020.9 - 0.0
19/07:30am 12.3 11.7 7.6 73 2.3 CALM 0 0 0 0 1020.6 - 0.0
19/07:00am 8.5 6.2 4.9 78 1.6 NW 6 7 3 4 1020.1 - 0.0
19/06:30am 6.7 5.3 3.5 80 1.4 CALM 0 0 0 0 1019.8 - 0.0
19/06:00am 6.6 5.2 3.4 80 1.3 CALM 0 0 0 0 1019.8 1019.5 0.0
19/05:30am 7.1 5.7 3.7 79 1.5 CALM 0 0 0 0 1019.5 - 0.0
19/05:00am 7.5 6.3 4.5 81 1.3 CALM 0 0 0 0 1019.3 - 0.0
19/04:30am 7.2 5.8 3.4 77 1.6 CALM 0 0 0 0 1019.3 - 0.0
19/04:00am 8.0 6.4 4.4 78 1.6 NNW 2 6 1 3 1018.9 - 0.0
19/03:30am 8.6 6.6 4.4 75 1.8 NE 4 7 2 4 1019.0 - 0.0
19/03:00am 9.8 7.5 5.8 76 1.8 NNE 7 9 4 5 1018.9 1018.7 0.0
19/02:30am 12.3 10.5 7.8 74 2.2 ESE 7 11 4 6 1018.9 - 0.0
19/02:00am 12.0 10.3 7.7 75 2.1 S 6 7 3 4 1019.0 - 0.0
19/01:30am 12.4 10.2 7.7 73 2.3 S 9 11 5 6 1019.1 - 0.0
19/01:00am 13.2 11.1 8.1 71 2.5 S 9 13 5 7 1019.2 - 0.0
19/12:30am 13.7 11.5 7.9 68 2.9 S 9 11 5 6 1019.1 - 0.0
19/12:00am 14.6 11.7 8.3 66 3.2 S 13 17 7 9 1019.2 1019.0 0.0
 
Date/Time
CDT
Temp
°C
App
Temp
°C
Dew
Point
Rel
Hum
%
Delta-T
°C
Wind Press
QNH
hPa
Press
MSL
hPa
Rain
since 9 am
mm
Dir
 
Spd
km/h
Gust
km/h
Spd
kts
Gust
kts
18/11:30pm 15.2 12.3 8.2 63 3.5 S 13 17 7 9 1019.1 - 0.0
18/11:00pm 15.7 12.3 7.7 59 4.0 S 15 20 8 11 1018.9 - 0.0
18/10:30pm 16.1 12.7 7.6 57 4.3 S 15 19 8 10 1018.7 - 0.0
18/10:00pm 16.9 12.8 7.8 55 4.6 S 19 28 10 15 1018.4 - 0.0
18/09:30pm 17.7 13.6 7.7 52 5.1 S 19 28 10 15 1018.1 - 0.0
18/09:00pm 18.4 14.0 7.2 48 5.7 S 20 26 11 14 1017.8 1017.6 0.0
18/08:30pm 19.0 13.5 7.4 47 5.9 S 26 33 14 18 1017.4 - 0.0
18/08:00pm 20.1 14.0 6.4 41 6.9 S 28 35 15 19 1017.0 - 0.0
18/07:30pm 21.1 15.0 6.6 39 7.4 S 28 37 15 20 1016.5 - 0.0
18/07:00pm 22.0 15.6 7.0 38 7.7 S 30 43 16 23 1015.9 - 0.0
18/06:30pm 23.3 16.9 7.0 35 8.5 SSW 30 41 16 22 1015.5 - 0.0
18/06:00pm 24.0 18.1 7.6 35 8.6 SSW 28 39 15 21 1015.1 1014.8 0.0
18/05:30pm 24.4 18.0 7.1 33 9.1 SSW 30 39 16 21 1014.8 - 0.0
18/05:00pm 25.1 19.0 6.8 31 9.6 SW 28 39 15 21 1014.6 - 0.0
18/04:30pm 24.8 17.9 6.5 31 9.5 SSW 32 43 17 23 1014.5 - 0.0
18/04:20pm 26.0 19.9 6.6 29 10.2 SSW 28 50 15 27 1014.5 - 0.0
18/04:00pm 26.3 20.5 6.3 28 10.4 SSW 26 37 14 20 1014.5 - 0.0
18/03:30pm 26.0 20.5 6.1 28 10.3 SW 24 41 13 22 1014.3 - 0.0
18/03:00pm 26.0 19.6 7.1 30 10.0 SW 30 41 16 22 1014.2 1013.9 0.0
18/02:30pm 26.1 20.4 6.7 29 10.2 SW 26 41 14 22 1014.1 - 0.0
18/02:00pm 24.9 18.8 6.6 31 9.5 SW 28 43 15 23 1014.4 - 0.0
18/01:30pm 25.2 19.8 8.2 34 9.1 SSW 26 39 14 21 1014.4 - 0.0
18/01:00pm 25.2 19.8 7.8 33 9.3 SW 26 37 14 20 1014.4 - 0.0
18/12:32pm 25.1 19.3 8.1 34 9.1 SW 28 46 15 25 1014.4 - 0.0
18/12:30pm 24.4 18.0 7.1 33 9.1 SW 30 46 16 25 1014.5 - 0.0
18/12:04pm 24.7 18.8 7.4 33 9.1 SW 28 52 15 28 1014.3 - 0.0
18/12:00pm 24.5 19.0 7.6 34 8.9 SW 26 43 14 23 1014.4 1014.1 0.0
18/11:30am 24.2 19.4 9.0 38 8.2 WSW 24 35 13 19 1014.3 - 0.0
18/11:00am 22.5 17.9 8.2 40 7.6 SSW 22 33 12 18 1014.2 - 0.0
18/10:30am 22.2 18.4 9.7 45 6.8 SW 20 30 11 16 1014.3 - 0.0
18/10:00am 21.4 17.3 8.7 44 6.7 SW 20 32 11 17 1014.3 - 0.0
18/09:30am 19.9 16.2 9.5 51 5.5 SW 19 26 10 14 1014.2 - 0.0
18/09:00am 18.9 15.4 10.2 57 4.7 SW 19 26 10 14 1014.0 1013.7 0.0
18/08:30am 18.0 15.8 10.9 63 3.8 SW 13 20 7 11 1013.9 - 0.0
18/08:00am 16.6 14.8 9.3 62 3.8 WNW 9 13 5 7 1013.3 - 0.0
18/07:30am 14.4 12.6 7.9 65 3.2 NW 7 9 4 5 1013.1 - 0.0
18/07:00am 9.9 7.4 4.5 69 2.4 NNW 7 7 4 4 1012.7 - 0.0
18/06:30am 7.6 5.7 2.9 72 2.0 NNE 2 7 1 4 1012.0 - 0.0
18/06:00am 7.6 4.7 2.7 71 2.1 NNE 7 7 4 4 1011.7 1011.4 0.0
18/05:30am 7.6 4.9 2.9 72 2.0 NNE 6 7 3 4 1011.3 - 0.0
18/05:00am 7.5 4.8 2.8 72 2.0 NNE 6 7 3 4 1010.9 - 0.0
18/04:30am 7.7 5.8 2.8 71 2.1 NNE 2 7 1 4 1010.7 - 0.0
18/04:00am 8.0 6.4 2.7 69 2.2 CALM 0 0 0 0 1010.5 - 0.0
18/03:30am 8.1 5.9 3.2 71 2.1 NNE 4 9 2 5 1010.3 - 0.0
18/03:00am 8.4 5.6 3.3 70 2.2 NNE 7 9 4 5 1010.2 1009.9 0.0
18/02:30am 9.2 6.5 3.8 69 2.4 WNW 7 9 4 5 1010.5 - 0.0
18/02:00am 8.9 7.3 2.5 64 2.7 CALM 0 0 0 0 1010.2 - 0.0
18/01:30am 9.3 7.8 3.1 65 2.7 CALM 0 0 0 0 1010.4 - 0.0
18/01:00am 10.3 9.0 4.0 65 2.8 CALM 0 0 0 0 1010.2 - 0.0
18/12:30am 11.2 10.0 4.7 64 3.0 CALM 0 0 0 0 1010.4 - 0.0
18/12:00am 13.5 12.1 7.1 65 3.1 S 4 7 2 4 1010.3 1010.0 0.0
 
Date/Time
CDT
Temp
°C
App
Temp
°C
Dew
Point
Rel
Hum
%
Delta-T
°C
Wind Press
QNH
hPa
Press
MSL
hPa
Rain
since 9 am
mm
Dir
 
Spd
km/h
Gust
km/h
Spd
kts
Gust
kts
17/11:30pm 13.3 11.4 6.6 64 3.2 S 6 7 3 4 1010.4 - 0.0
17/11:00pm 14.9 12.5 7.2 60 3.8 SE 9 13 5 7 1009.8 - 0.0
17/10:30pm 15.7 13.0 7.5 58 4.1 ESE 11 15 6 8 1009.9 - 0.0
17/10:00pm 16.0 13.6 7.2 56 4.4 SSE 9 13 5 7 1010.1 - 0.0
17/09:30pm 16.5 13.0 7.4 55 4.6 S 15 24 8 13 1010.1 - 0.0
17/09:00pm 17.2 13.4 7.5 53 4.9 S 17 22 9 12 1010.0 1009.7 0.0
17/08:30pm 18.1 12.6 7.5 50 5.4 SSW 26 33 14 18 1009.8 - 0.0
17/08:00pm 19.3 12.6 7.4 46 6.1 SSW 32 39 17 21 1009.5 - 0.0
17/07:30pm 20.2 13.1 6.5 41 6.9 SW 33 46 18 25 1009.2 - 0.0
17/07:00pm 21.9 14.8 6.6 37 7.8 SW 33 43 18 23 1008.5 - 0.0
17/06:30pm 23.6 14.5 6.0 32 9.0 SW 43 54 23 29 1007.5 - 0.0
17/06:07pm 25.9 16.5 5.5 27 10.5 SW 44 63 24 34 1006.9 - 0.0
17/06:00pm 26.2 15.6 5.2 26 10.8 WSW 50 63 27 34 1006.5 1006.3 0.0
17/05:52pm 28.2 21.7 4.5 22 12.1 W 28 59 15 32 1006.4 - 0.0
17/05:30pm 28.3 24.0 0.9 17 13.2 SW 13 20 7 11 1006.4 - 0.0
17/05:00pm 28.0 24.3 2.2 19 12.7 NW 11 19 6 10 1006.4 - 0.0
17/04:30pm 27.6 23.6 2.6 20 12.3 SSW 13 22 7 12 1006.8 - 0.0
17/04:00pm 26.8 23.0 2.0 20 12.0 WNW 11 19 6 10 1007.1 - 0.0
17/03:30pm 26.4 22.8 3.0 22 11.5 W 11 20 6 11 1007.4 - 0.0
17/03:00pm 25.8 22.1 2.5 22 11.4 W 11 17 6 9 1008.1 1007.8 0.0
17/02:30pm 25.1 21.3 1.9 22 11.1 SW 11 17 6 9 1008.7 - 0.0
17/02:00pm 24.9 21.8 3.5 25 10.5 NNE 9 19 5 10 1009.1 - 0.0
17/01:30pm 24.0 21.0 3.9 27 9.9 E 9 19 5 10 1009.8 - 0.0
17/01:00pm 22.5 19.0 3.6 29 9.2 W 11 19 6 10 1010.1 - 0.0
17/12:30pm 22.1 19.3 3.3 29 9.0 WNW 7 13 4 7 1010.7 - 0.0
17/12:00pm 21.4 18.4 4.0 32 8.4 W 9 17 5 9 1011.1 1010.8 0.0
17/11:30am 20.2 17.6 4.3 35 7.7 SW 7 13 4 7 1011.4 - 0.0
17/11:00am 19.9 17.5 5.2 38 7.2 N 7 13 4 7 1011.7 - 0.0
17/10:30am 18.6 15.8 5.1 41 6.6 SE 9 15 5 8 1012.0 - 0.0
17/10:00am 18.3 15.3 6.2 45 6.0 SSE 11 17 6 9 1012.2 - 0.0
17/09:30am 16.9 14.2 5.8 48 5.4 E 9 17 5 9 1012.5 - 0.0
17/09:00am 16.3 13.7 5.9 50 5.1 ESE 9 13 5 7 1012.6 1012.3 0.0
17/08:30am 16.1 13.7 6.8 54 4.6 ESE 9 15 5 8 1012.5 - 0.0
17/08:00am 15.1 12.8 7.4 60 3.8 E 9 11 5 6 1012.3 - 0.0
17/07:30am 12.4 11.7 6.9 69 2.6 CALM 0 0 0 0 1012.3 - 0.0
17/07:00am 7.5 4.9 4.1 79 1.5 NE 7 9 4 5 1012.2 - 0.0
17/06:30am 5.5 3.5 2.5 81 1.2 NNE 2 7 1 4 1012.0 - 0.0
17/06:00am 5.7 2.5 3.0 83 1.1 NE 9 11 5 6 1011.6 1011.3 0.0
17/05:30am 5.7 3.0 2.7 81 1.2 N 6 7 3 4 1011.4 - 0.0
17/05:00am 5.7 3.0 2.4 79 1.3 NNE 6 7 3 4 1011.1 - 0.0
17/04:30am 5.9 3.2 2.4 78 1.4 NNE 6 7 3 4 1011.0 - 0.0
17/04:00am 6.9 4.4 3.5 79 1.4 NNE 6 9 3 5 1010.8 - 0.0
17/03:30am 7.2 4.5 3.8 79 1.5 NE 7 9 4 5 1010.9 - 0.0
17/03:00am 8.1 5.5 4.3 77 1.7 NNW 7 9 4 5 1011.1 1010.8 0.0
17/02:30am 7.9 5.8 3.9 76 1.7 NNW 4 7 2 4 1011.3 - 0.0
17/02:00am 7.8 5.9 3.1 72 2.0 N 2 7 1 4 1011.1 - 0.0
17/01:30am 8.6 6.4 3.2 69 2.3 WNW 4 7 2 4 1011.0 - 0.0
17/01:00am 9.3 8.0 3.9 69 2.4 CALM 0 0 0 0 1011.2 - 0.0
17/12:30am 11.1 10.1 5.8 70 2.5 CALM 0 0 0 0 1011.5 - 0.0
17/12:00am 12.3 11.1 6.4 67 2.8 SSW 2 6 1 3 1011.6 1011.3 0.0
 
Date/Time
CDT
Temp
°C
App
Temp
°C
Dew
Point
Rel
Hum
%
Delta-T
°C
Wind Press
QNH
hPa
Press
MSL
hPa
Rain
since 9 am
mm
Dir
 
Spd
km/h
Gust
km/h
Spd
kts
Gust
kts
16/11:30pm 13.2 10.3 6.5 64 3.2 S 11 15 6 8 1011.6 - 0.0
16/11:00pm 14.0 10.8 6.8 62 3.5 S 13 15 7 8 1011.5 - 0.0
16/10:30pm 15.0 11.5 7.1 59 3.9 S 15 20 8 11 1011.7 - 0.0
16/10:00pm 15.5 11.6 7.0 57 4.2 S 17 24 9 13 1011.4 - 0.0
16/09:30pm 16.3 11.4 7.0 54 4.6 S 22 30 12 16 1011.2 - 0.0
16/09:00pm 16.8 11.6 7.2 53 4.8 S 24 32 13 17 1011.0 1010.7 0.0
16/08:30pm 17.6 12.2 6.5 48 5.5 SSW 24 32 13 17 1010.6 - 0.0
16/08:00pm 18.6 12.0 6.1 44 6.2 SSW 30 39 16 21 1010.2 - 0.0
16/07:30pm 19.7 12.6 5.4 39 7.0 SSW 32 41 17 22 1010.1 - 0.0

Other Formats:

Comma delimited format used in spreadsheet applications
http://www.bom.gov.au/fwo/IDS60801/IDS60801.95654.axf

JavaScript Object Notation format (JSON) in row-major order
http://www.bom.gov.au/fwo/IDS60801/IDS60801.95654.json